sensor_id;sensor_type;location;lat;lon;timestamp;P1;durP1;ratioP1;P2;durP2;ratioP2
41799;SDS011;27468;47.460;19.034;2022-12-18T00:01:00;56.23;;;19.53;;
41799;SDS011;27468;47.460;19.034;2022-12-18T00:03:34;60.60;;;19.20;;
41799;SDS011;27468;47.460;19.034;2022-12-18T00:06:01;58.90;;;18.83;;
41799;SDS011;27468;47.460;19.034;2022-12-18T00:08:26;61.23;;;21.13;;
41799;SDS011;27468;47.460;19.034;2022-12-18T00:10:53;54.77;;;18.90;;
41799;SDS011;27468;47.460;19.034;2022-12-18T00:13:18;58.70;;;18.60;;
41799;SDS011;27468;47.460;19.034;2022-12-18T00:15:44;56.90;;;19.70;;
41799;SDS011;27468;47.460;19.034;2022-12-18T00:18:09;60.93;;;21.70;;
41799;SDS011;27468;47.460;19.034;2022-12-18T00:20:35;65.57;;;21.20;;
41799;SDS011;27468;47.460;19.034;2022-12-18T00:23:02;53.57;;;18.40;;
41799;SDS011;27468;47.460;19.034;2022-12-18T00:25:27;61.53;;;20.03;;
41799;SDS011;27468;47.460;19.034;2022-12-18T00:27:52;59.07;;;20.23;;
41799;SDS011;27468;47.460;19.034;2022-12-18T00:30:18;54.77;;;18.73;;
41799;SDS011;27468;47.460;19.034;2022-12-18T00:32:43;64.90;;;19.87;;
41799;SDS011;27468;47.460;19.034;2022-12-18T00:35:09;62.73;;;20.10;;
41799;SDS011;27468;47.460;19.034;2022-12-18T00:37:34;62.93;;;21.00;;
41799;SDS011;27468;47.460;19.034;2022-12-18T00:40:00;66.70;;;20.90;;
41799;SDS011;27468;47.460;19.034;2022-12-18T00:42:25;61.53;;;20.00;;
41799;SDS011;27468;47.460;19.034;2022-12-18T00:45:09;67.23;;;21.17;;
41799;SDS011;27468;47.460;19.034;2022-12-18T00:47:34;63.33;;;20.03;;
41799;SDS011;27468;47.460;19.034;2022-12-18T00:50:00;55.20;;;18.90;;
41799;SDS011;27468;47.460;19.034;2022-12-18T00:52:25;62.10;;;19.10;;
41799;SDS011;27468;47.460;19.034;2022-12-18T00:54:50;66.53;;;21.93;;
41799;SDS011;27468;47.460;19.034;2022-12-18T00:57:16;63.37;;;20.63;;
41799;SDS011;27468;47.460;19.034;2022-12-18T00:59:41;68.57;;;20.97;;
41799;SDS011;27468;47.460;19.034;2022-12-18T01:02:07;63.90;;;19.53;;
41799;SDS011;27468;47.460;19.034;2022-12-18T01:04:32;66.10;;;20.53;;
41799;SDS011;27468;47.460;19.034;2022-12-18T01:06:58;59.30;;;20.13;;
41799;SDS011;27468;47.460;19.034;2022-12-18T01:09:23;59.33;;;19.40;;
41799;SDS011;27468;47.460;19.034;2022-12-18T01:11:49;62.80;;;20.00;;
41799;SDS011;27468;47.460;19.034;2022-12-18T01:14:14;61.30;;;19.67;;
41799;SDS011;27468;47.460;19.034;2022-12-18T01:16:40;55.83;;;18.83;;
41799;SDS011;27468;47.460;19.034;2022-12-18T01:19:05;57.00;;;18.30;;
41799;SDS011;27468;47.460;19.034;2022-12-18T01:21:31;57.40;;;18.70;;
41799;SDS011;27468;47.460;19.034;2022-12-18T01:23:56;57.03;;;18.50;;
41799;SDS011;27468;47.460;19.034;2022-12-18T01:26:22;53.87;;;18.43;;
41799;SDS011;27468;47.460;19.034;2022-12-18T01:28:49;56.03;;;17.73;;
41799;SDS011;27468;47.460;19.034;2022-12-18T01:31:18;59.73;;;19.57;;
41799;SDS011;27468;47.460;19.034;2022-12-18T01:33:46;54.80;;;18.63;;
41799;SDS011;27468;47.460;19.034;2022-12-18T01:36:18;60.97;;;19.03;;
41799;SDS011;27468;47.460;19.034;2022-12-18T01:38:48;58.73;;;19.00;;
41799;SDS011;27468;47.460;19.034;2022-12-18T01:41:15;56.90;;;18.57;;
41799;SDS011;27468;47.460;19.034;2022-12-18T01:46:11;66.23;;;19.57;;
41799;SDS011;27468;47.460;19.034;2022-12-18T01:48:37;58.33;;;19.17;;
41799;SDS011;27468;47.460;19.034;2022-12-18T01:51:05;61.23;;;19.77;;
41799;SDS011;27468;47.460;19.034;2022-12-18T01:53:32;61.57;;;18.87;;
41799;SDS011;27468;47.460;19.034;2022-12-18T01:55:58;53.73;;;18.47;;
41799;SDS011;27468;47.460;19.034;2022-12-18T01:58:27;57.17;;;19.20;;
41799;SDS011;27468;47.460;19.034;2022-12-18T02:01:00;58.30;;;18.90;;
41799;SDS011;27468;47.460;19.034;2022-12-18T02:03:28;59.67;;;19.67;;
41799;SDS011;27468;47.460;19.034;2022-12-18T02:08:41;60.60;;;18.83;;
41799;SDS011;27468;47.460;19.034;2022-12-18T02:11:18;62.33;;;19.43;;
41799;SDS011;27468;47.460;19.034;2022-12-18T02:14:04;58.93;;;18.70;;
41799;SDS011;27468;47.460;19.034;2022-12-18T02:17:06;56.57;;;19.00;;
41799;SDS011;27468;47.460;19.034;2022-12-18T02:27:59;59.50;;;18.37;;
41799;SDS011;27468;47.460;19.034;2022-12-18T02:30:27;59.87;;;19.00;;
41799;SDS011;27468;47.460;19.034;2022-12-18T02:32:56;57.53;;;19.10;;
41799;SDS011;27468;47.460;19.034;2022-12-18T02:35:25;58.20;;;19.17;;
41799;SDS011;27468;47.460;19.034;2022-12-18T02:37:54;57.77;;;18.73;;
41799;SDS011;27468;47.460;19.034;2022-12-18T02:40:20;55.80;;;17.73;;
41799;SDS011;27468;47.460;19.034;2022-12-18T02:42:48;56.13;;;18.40;;
41799;SDS011;27468;47.460;19.034;2022-12-18T02:45:14;56.60;;;18.37;;
41799;SDS011;27468;47.460;19.034;2022-12-18T02:47:40;57.07;;;19.13;;
41799;SDS011;27468;47.460;19.034;2022-12-18T03:00:43;63.13;;;20.03;;
41799;SDS011;27468;47.460;19.034;2022-12-18T03:06:00;59.90;;;19.67;;
41799;SDS011;27468;47.460;19.034;2022-12-18T03:08:37;62.20;;;18.13;;
41799;SDS011;27468;47.460;19.034;2022-12-18T03:11:10;65.07;;;20.37;;
41799;SDS011;27468;47.460;19.034;2022-12-18T03:13:40;68.50;;;20.83;;
41799;SDS011;27468;47.460;19.034;2022-12-18T03:16:11;61.37;;;19.67;;
41799;SDS011;27468;47.460;19.034;2022-12-18T03:19:03;66.27;;;20.33;;
41799;SDS011;27468;47.460;19.034;2022-12-18T03:21:41;62.57;;;19.93;;
41799;SDS011;27468;47.460;19.034;2022-12-18T03:24:10;68.93;;;21.23;;
41799;SDS011;27468;47.460;19.034;2022-12-18T03:26:36;62.20;;;21.30;;
41799;SDS011;27468;47.460;19.034;2022-12-18T03:29:25;65.43;;;20.27;;
41799;SDS011;27468;47.460;19.034;2022-12-18T03:31:58;70.97;;;21.07;;
41799;SDS011;27468;47.460;19.034;2022-12-18T03:35:05;63.70;;;20.30;;
41799;SDS011;27468;47.460;19.034;2022-12-18T03:37:34;65.67;;;20.80;;
41799;SDS011;27468;47.460;19.034;2022-12-18T03:40:00;66.70;;;21.50;;
41799;SDS011;27468;47.460;19.034;2022-12-18T03:42:27;62.63;;;19.77;;
41799;SDS011;27468;47.460;19.034;2022-12-18T03:44:58;65.30;;;21.10;;
41799;SDS011;27468;47.460;19.034;2022-12-18T03:50:36;67.83;;;20.07;;
41799;SDS011;27468;47.460;19.034;2022-12-18T03:58:41;65.13;;;19.23;;
41799;SDS011;27468;47.460;19.034;2022-12-18T04:01:09;61.80;;;18.77;;
41799;SDS011;27468;47.460;19.034;2022-12-18T04:03:39;70.80;;;20.83;;
41799;SDS011;27468;47.460;19.034;2022-12-18T04:06:07;60.73;;;20.77;;
41799;SDS011;27468;47.460;19.034;2022-12-18T04:08:33;63.63;;;19.67;;
41799;SDS011;27468;47.460;19.034;2022-12-18T04:11:00;58.97;;;19.90;;
41799;SDS011;27468;47.460;19.034;2022-12-18T04:13:31;62.90;;;19.97;;
41799;SDS011;27468;47.460;19.034;2022-12-18T04:16:00;62.77;;;19.40;;
41799;SDS011;27468;47.460;19.034;2022-12-18T04:18:26;63.10;;;18.90;;
41799;SDS011;27468;47.460;19.034;2022-12-18T04:20:51;67.80;;;20.17;;
41799;SDS011;27468;47.460;19.034;2022-12-18T04:23:17;59.10;;;19.80;;
41799;SDS011;27468;47.460;19.034;2022-12-18T04:25:42;63.87;;;19.17;;
41799;SDS011;27468;47.460;19.034;2022-12-18T04:28:08;59.60;;;18.87;;
41799;SDS011;27468;47.460;19.034;2022-12-18T04:30:33;62.70;;;20.10;;
41799;SDS011;27468;47.460;19.034;2022-12-18T04:32:59;59.30;;;18.77;;
41799;SDS011;27468;47.460;19.034;2022-12-18T04:35:24;61.13;;;20.13;;
41799;SDS011;27468;47.460;19.034;2022-12-18T04:37:50;60.23;;;19.57;;
41799;SDS011;27468;47.460;19.034;2022-12-18T04:40:15;61.57;;;19.87;;
41799;SDS011;27468;47.460;19.034;2022-12-18T04:42:40;57.93;;;19.63;;
41799;SDS011;27468;47.460;19.034;2022-12-18T04:45:06;63.03;;;19.87;;
41799;SDS011;27468;47.460;19.034;2022-12-18T04:47:32;67.23;;;21.37;;
41799;SDS011;27468;47.460;19.034;2022-12-18T04:49:58;63.47;;;19.93;;
41799;SDS011;27468;47.460;19.034;2022-12-18T04:52:23;71.37;;;20.23;;
41799;SDS011;27468;47.460;19.034;2022-12-18T04:54:49;63.50;;;19.13;;
41799;SDS011;27468;47.460;19.034;2022-12-18T04:57:14;65.93;;;20.40;;
41799;SDS011;27468;47.460;19.034;2022-12-18T04:59:39;65.23;;;21.33;;
41799;SDS011;27468;47.460;19.034;2022-12-18T05:02:05;61.23;;;20.80;;
41799;SDS011;27468;47.460;19.034;2022-12-18T05:04:30;63.93;;;20.57;;
41799;SDS011;27468;47.460;19.034;2022-12-18T05:06:56;65.77;;;20.67;;
41799;SDS011;27468;47.460;19.034;2022-12-18T05:09:22;59.87;;;18.87;;
41799;SDS011;27468;47.460;19.034;2022-12-18T05:11:48;64.30;;;21.63;;
41799;SDS011;27468;47.460;19.034;2022-12-18T05:14:13;63.40;;;20.90;;
41799;SDS011;27468;47.460;19.034;2022-12-18T05:16:39;63.93;;;22.07;;
41799;SDS011;27468;47.460;19.034;2022-12-18T05:19:04;67.17;;;20.53;;
41799;SDS011;27468;47.460;19.034;2022-12-18T05:21:29;67.67;;;20.13;;
41799;SDS011;27468;47.460;19.034;2022-12-18T05:23:55;56.00;;;19.83;;
41799;SDS011;27468;47.460;19.034;2022-12-18T05:26:20;68.33;;;22.47;;
41799;SDS011;27468;47.460;19.034;2022-12-18T05:28:46;62.13;;;19.47;;
41799;SDS011;27468;47.460;19.034;2022-12-18T05:31:11;63.80;;;21.43;;
41799;SDS011;27468;47.460;19.034;2022-12-18T05:33:37;67.70;;;19.70;;
41799;SDS011;27468;47.460;19.034;2022-12-18T05:36:03;65.07;;;21.17;;
41799;SDS011;27468;47.460;19.034;2022-12-18T05:38:31;64.73;;;21.20;;
41799;SDS011;27468;47.460;19.034;2022-12-18T05:40:58;66.90;;;21.43;;
41799;SDS011;27468;47.460;19.034;2022-12-18T05:43:24;65.27;;;19.87;;
41799;SDS011;27468;47.460;19.034;2022-12-18T05:45:50;72.00;;;21.23;;
41799;SDS011;27468;47.460;19.034;2022-12-18T05:48:17;60.73;;;21.37;;
41799;SDS011;27468;47.460;19.034;2022-12-18T05:50:43;67.83;;;20.67;;
41799;SDS011;27468;47.460;19.034;2022-12-18T05:53:13;64.70;;;19.87;;
41799;SDS011;27468;47.460;19.034;2022-12-18T05:55:41;68.80;;;22.13;;
41799;SDS011;27468;47.460;19.034;2022-12-18T05:58:08;62.23;;;20.33;;
41799;SDS011;27468;47.460;19.034;2022-12-18T06:00:35;66.17;;;19.93;;
41799;SDS011;27468;47.460;19.034;2022-12-18T06:03:05;70.67;;;20.83;;
41799;SDS011;27468;47.460;19.034;2022-12-18T06:05:35;66.53;;;20.80;;
41799;SDS011;27468;47.460;19.034;2022-12-18T06:08:02;71.90;;;19.53;;
41799;SDS011;27468;47.460;19.034;2022-12-18T06:10:27;72.87;;;21.90;;
41799;SDS011;27468;47.460;19.034;2022-12-18T06:12:53;71.20;;;21.90;;
41799;SDS011;27468;47.460;19.034;2022-12-18T06:15:18;67.73;;;20.03;;
41799;SDS011;27468;47.460;19.034;2022-12-18T06:17:43;72.23;;;20.57;;
41799;SDS011;27468;47.460;19.034;2022-12-18T06:20:09;71.43;;;21.40;;
41799;SDS011;27468;47.460;19.034;2022-12-18T06:22:34;66.70;;;21.20;;
41799;SDS011;27468;47.460;19.034;2022-12-18T06:25:00;66.90;;;21.30;;
41799;SDS011;27468;47.460;19.034;2022-12-18T06:27:26;63.83;;;19.40;;
41799;SDS011;27468;47.460;19.034;2022-12-18T06:29:51;65.50;;;20.63;;
41799;SDS011;27468;47.460;19.034;2022-12-18T06:32:16;64.90;;;20.73;;
41799;SDS011;27468;47.460;19.034;2022-12-18T06:34:42;64.00;;;20.43;;
41799;SDS011;27468;47.460;19.034;2022-12-18T06:37:07;64.60;;;20.00;;
41799;SDS011;27468;47.460;19.034;2022-12-18T06:39:33;60.27;;;20.77;;
41799;SDS011;27468;47.460;19.034;2022-12-18T06:41:58;69.67;;;20.13;;
41799;SDS011;27468;47.460;19.034;2022-12-18T06:44:23;65.60;;;21.63;;
41799;SDS011;27468;47.460;19.034;2022-12-18T06:46:49;66.30;;;20.93;;
41799;SDS011;27468;47.460;19.034;2022-12-18T06:49:14;61.03;;;19.70;;
41799;SDS011;27468;47.460;19.034;2022-12-18T06:51:41;67.93;;;19.57;;
41799;SDS011;27468;47.460;19.034;2022-12-18T06:54:06;69.03;;;21.20;;
41799;SDS011;27468;47.460;19.034;2022-12-18T06:56:32;68.07;;;20.60;;
41799;SDS011;27468;47.460;19.034;2022-12-18T06:58:57;64.40;;;21.47;;
41799;SDS011;27468;47.460;19.034;2022-12-18T07:01:23;64.13;;;20.03;;
41799;SDS011;27468;47.460;19.034;2022-12-18T07:03:55;68.23;;;22.37;;
41799;SDS011;27468;47.460;19.034;2022-12-18T07:06:21;60.67;;;19.90;;
41799;SDS011;27468;47.460;19.034;2022-12-18T07:08:49;55.80;;;18.83;;
41799;SDS011;27468;47.460;19.034;2022-12-18T07:11:16;56.90;;;21.00;;
41799;SDS011;27468;47.460;19.034;2022-12-18T07:13:42;63.90;;;19.93;;
41799;SDS011;27468;47.460;19.034;2022-12-18T07:16:09;55.27;;;19.23;;
41799;SDS011;27468;47.460;19.034;2022-12-18T07:18:39;58.67;;;19.50;;
41799;SDS011;27468;47.460;19.034;2022-12-18T07:21:06;54.73;;;19.80;;
41799;SDS011;27468;47.460;19.034;2022-12-18T07:23:33;59.50;;;20.10;;
41799;SDS011;27468;47.460;19.034;2022-12-18T07:26:03;58.27;;;19.67;;
41799;SDS011;27468;47.460;19.034;2022-12-18T07:28:33;57.37;;;19.57;;
41799;SDS011;27468;47.460;19.034;2022-12-18T07:31:03;58.83;;;21.17;;
41799;SDS011;27468;47.460;19.034;2022-12-18T07:33:29;62.73;;;21.40;;
41799;SDS011;27468;47.460;19.034;2022-12-18T07:35:55;57.27;;;19.13;;
41799;SDS011;27468;47.460;19.034;2022-12-18T07:38:21;53.47;;;18.80;;
41799;SDS011;27468;47.460;19.034;2022-12-18T07:40:47;64.00;;;21.37;;
41799;SDS011;27468;47.460;19.034;2022-12-18T07:43:12;53.33;;;18.30;;
41799;SDS011;27468;47.460;19.034;2022-12-18T07:45:37;64.17;;;21.57;;
41799;SDS011;27468;47.460;19.034;2022-12-18T07:48:04;64.50;;;20.23;;
41799;SDS011;27468;47.460;19.034;2022-12-18T07:50:29;60.03;;;20.17;;
41799;SDS011;27468;47.460;19.034;2022-12-18T07:52:55;57.50;;;20.40;;
41799;SDS011;27468;47.460;19.034;2022-12-18T07:55:21;61.87;;;21.67;;
41799;SDS011;27468;47.460;19.034;2022-12-18T07:57:46;60.77;;;19.97;;
41799;SDS011;27468;47.460;19.034;2022-12-18T08:00:12;59.50;;;20.83;;
41799;SDS011;27468;47.460;19.034;2022-12-18T08:02:38;68.37;;;23.20;;
41799;SDS011;27468;47.460;19.034;2022-12-18T08:05:03;54.20;;;19.87;;
41799;SDS011;27468;47.460;19.034;2022-12-18T08:07:29;59.03;;;19.80;;
41799;SDS011;27468;47.460;19.034;2022-12-18T08:09:54;58.77;;;19.73;;
41799;SDS011;27468;47.460;19.034;2022-12-18T08:12:20;50.27;;;19.93;;
41799;SDS011;27468;47.460;19.034;2022-12-18T08:14:45;60.27;;;21.73;;
41799;SDS011;27468;47.460;19.034;2022-12-18T08:17:11;53.67;;;20.37;;
41799;SDS011;27468;47.460;19.034;2022-12-18T08:19:36;58.20;;;19.67;;
41799;SDS011;27468;47.460;19.034;2022-12-18T08:22:01;54.93;;;19.67;;
41799;SDS011;27468;47.460;19.034;2022-12-18T08:24:27;52.73;;;18.73;;
41799;SDS011;27468;47.460;19.034;2022-12-18T08:26:52;53.47;;;19.30;;
41799;SDS011;27468;47.460;19.034;2022-12-18T08:29:18;53.63;;;19.50;;
41799;SDS011;27468;47.460;19.034;2022-12-18T08:31:43;51.73;;;18.47;;
41799;SDS011;27468;47.460;19.034;2022-12-18T08:34:09;50.83;;;19.87;;
41799;SDS011;27468;47.460;19.034;2022-12-18T08:36:34;51.80;;;18.47;;
41799;SDS011;27468;47.460;19.034;2022-12-18T08:39:00;51.03;;;18.20;;
41799;SDS011;27468;47.460;19.034;2022-12-18T08:41:25;51.13;;;18.83;;
41799;SDS011;27468;47.460;19.034;2022-12-18T08:43:51;49.40;;;17.40;;
41799;SDS011;27468;47.460;19.034;2022-12-18T08:46:37;48.10;;;18.43;;
41799;SDS011;27468;47.460;19.034;2022-12-18T08:49:04;50.97;;;19.33;;
41799;SDS011;27468;47.460;19.034;2022-12-18T08:51:30;51.00;;;18.03;;
41799;SDS011;27468;47.460;19.034;2022-12-18T08:53:56;56.80;;;19.43;;
41799;SDS011;27468;47.460;19.034;2022-12-18T08:56:22;51.10;;;19.27;;
41799;SDS011;27468;47.460;19.034;2022-12-18T08:58:50;57.13;;;20.33;;
41799;SDS011;27468;47.460;19.034;2022-12-18T09:01:17;49.33;;;19.87;;
41799;SDS011;27468;47.460;19.034;2022-12-18T09:03:42;54.53;;;19.90;;
41799;SDS011;27468;47.460;19.034;2022-12-18T09:06:08;51.23;;;19.83;;
41799;SDS011;27468;47.460;19.034;2022-12-18T09:08:33;51.17;;;18.37;;
41799;SDS011;27468;47.460;19.034;2022-12-18T09:10:59;55.60;;;21.70;;
41799;SDS011;27468;47.460;19.034;2022-12-18T09:13:24;50.20;;;18.97;;
41799;SDS011;27468;47.460;19.034;2022-12-18T09:15:53;52.23;;;20.57;;
41799;SDS011;27468;47.460;19.034;2022-12-18T09:18:20;50.17;;;19.50;;
41799;SDS011;27468;47.460;19.034;2022-12-18T09:20:47;59.40;;;21.67;;
41799;SDS011;27468;47.460;19.034;2022-12-18T09:23:12;49.80;;;18.83;;
41799;SDS011;27468;47.460;19.034;2022-12-18T09:25:38;47.93;;;19.57;;
41799;SDS011;27468;47.460;19.034;2022-12-18T09:28:05;48.97;;;18.53;;
41799;SDS011;27468;47.460;19.034;2022-12-18T09:30:36;51.23;;;19.40;;
41799;SDS011;27468;47.460;19.034;2022-12-18T09:33:06;49.73;;;19.63;;
41799;SDS011;27468;47.460;19.034;2022-12-18T09:35:32;47.47;;;19.53;;
41799;SDS011;27468;47.460;19.034;2022-12-18T09:37:57;48.27;;;19.17;;
41799;SDS011;27468;47.460;19.034;2022-12-18T09:40:23;45.00;;;18.80;;
41799;SDS011;27468;47.460;19.034;2022-12-18T09:42:54;53.37;;;20.03;;
41799;SDS011;27468;47.460;19.034;2022-12-18T09:45:24;49.83;;;20.60;;
41799;SDS011;27468;47.460;19.034;2022-12-18T09:47:49;48.53;;;19.00;;
41799;SDS011;27468;47.460;19.034;2022-12-18T09:50:24;45.73;;;18.30;;
41799;SDS011;27468;47.460;19.034;2022-12-18T09:52:56;41.77;;;17.67;;
41799;SDS011;27468;47.460;19.034;2022-12-18T09:55:35;50.30;;;20.57;;
41799;SDS011;27468;47.460;19.034;2022-12-18T09:58:12;48.50;;;19.20;;
41799;SDS011;27468;47.460;19.034;2022-12-18T10:00:41;46.97;;;19.47;;
41799;SDS011;27468;47.460;19.034;2022-12-18T10:03:11;42.80;;;17.77;;
41799;SDS011;27468;47.460;19.034;2022-12-18T10:08:48;45.00;;;18.10;;
41799;SDS011;27468;47.460;19.034;2022-12-18T10:16:55;48.97;;;18.43;;
41799;SDS011;27468;47.460;19.034;2022-12-18T10:19:36;52.40;;;20.03;;
41799;SDS011;27468;47.460;19.034;2022-12-18T10:24:56;47.27;;;19.30;;
41799;SDS011;27468;47.460;19.034;2022-12-18T10:27:29;45.60;;;19.20;;
41799;SDS011;27468;47.460;19.034;2022-12-18T10:29:55;51.07;;;19.27;;
41799;SDS011;27468;47.460;19.034;2022-12-18T10:32:22;48.23;;;18.83;;
41799;SDS011;27468;47.460;19.034;2022-12-18T10:34:52;52.83;;;19.70;;
41799;SDS011;27468;47.460;19.034;2022-12-18T10:37:22;47.40;;;19.37;;
41799;SDS011;27468;47.460;19.034;2022-12-18T10:40:10;47.83;;;18.90;;
41799;SDS011;27468;47.460;19.034;2022-12-18T10:42:40;47.20;;;18.60;;
41799;SDS011;27468;47.460;19.034;2022-12-18T10:47:35;45.93;;;18.93;;
41799;SDS011;27468;47.460;19.034;2022-12-18T10:50:00;45.27;;;18.97;;
41799;SDS011;27468;47.460;19.034;2022-12-18T10:52:26;48.27;;;19.30;;
41799;SDS011;27468;47.460;19.034;2022-12-18T10:54:53;41.40;;;17.83;;
41799;SDS011;27468;47.460;19.034;2022-12-18T11:02:54;44.43;;;17.67;;
41799;SDS011;27468;47.460;19.034;2022-12-18T11:05:24;44.17;;;17.57;;
41799;SDS011;27468;47.460;19.034;2022-12-18T11:07:58;38.77;;;16.63;;
41799;SDS011;27468;47.460;19.034;2022-12-18T11:10:32;46.93;;;17.60;;
41799;SDS011;27468;47.460;19.034;2022-12-18T11:13:15;42.13;;;18.07;;
41799;SDS011;27468;47.460;19.034;2022-12-18T11:15:46;41.53;;;16.23;;
41799;SDS011;27468;47.460;19.034;2022-12-18T11:20:54;40.40;;;17.53;;
41799;SDS011;27468;47.460;19.034;2022-12-18T11:23:47;40.90;;;17.33;;
41799;SDS011;27468;47.460;19.034;2022-12-18T11:26:15;45.27;;;18.23;;
41799;SDS011;27468;47.460;19.034;2022-12-18T11:28:51;45.27;;;17.57;;
41799;SDS011;27468;47.460;19.034;2022-12-18T11:31:32;43.90;;;16.57;;
41799;SDS011;27468;47.460;19.034;2022-12-18T11:36:39;36.40;;;16.50;;
41799;SDS011;27468;47.460;19.034;2022-12-18T11:41:50;38.53;;;15.30;;
41799;SDS011;27468;47.460;19.034;2022-12-18T11:50:16;41.37;;;16.67;;
41799;SDS011;27468;47.460;19.034;2022-12-18T11:52:48;41.90;;;17.27;;
41799;SDS011;27468;47.460;19.034;2022-12-18T11:55:15;39.93;;;17.57;;
41799;SDS011;27468;47.460;19.034;2022-12-18T12:00:20;40.53;;;16.23;;
41799;SDS011;27468;47.460;19.034;2022-12-18T12:37:25;50.47;;;21.60;;
41799;SDS011;27468;47.460;19.034;2022-12-18T12:39:31;45.90;;;19.97;;
41799;SDS011;27468;47.460;19.034;2022-12-18T12:42:02;48.43;;;20.50;;
41799;SDS011;27468;47.460;19.034;2022-12-18T12:44:54;52.30;;;22.47;;
41799;SDS011;27468;47.460;19.034;2022-12-18T12:49:53;56.23;;;23.50;;
41799;SDS011;27468;47.460;19.034;2022-12-18T12:55:01;54.63;;;23.40;;
41799;SDS011;27468;47.460;19.034;2022-12-18T13:05:17;55.97;;;23.83;;
41799;SDS011;27468;47.460;19.034;2022-12-18T13:07:58;55.33;;;24.48;;
41799;SDS011;27468;47.460;19.034;2022-12-18T13:10:31;55.40;;;24.40;;
41799;SDS011;27468;47.460;19.034;2022-12-18T13:13:03;57.03;;;25.67;;
41799;SDS011;27468;47.460;19.034;2022-12-18T13:15:45;57.10;;;25.33;;
41799;SDS011;27468;47.460;19.034;2022-12-18T13:18:21;58.10;;;26.80;;
41799;SDS011;27468;47.460;19.034;2022-12-18T13:23:23;58.13;;;25.67;;
41799;SDS011;27468;47.460;19.034;2022-12-18T13:25:54;59.20;;;25.07;;
41799;SDS011;27468;47.460;19.034;2022-12-18T13:28:23;58.73;;;25.90;;
41799;SDS011;27468;47.460;19.034;2022-12-18T13:30:53;57.40;;;24.37;;
41799;SDS011;27468;47.460;19.034;2022-12-18T13:36:13;53.88;;;24.92;;
41799;SDS011;27468;47.460;19.034;2022-12-18T13:38:41;62.07;;;26.50;;
41799;SDS011;27468;47.460;19.034;2022-12-18T13:43:41;57.23;;;25.10;;
41799;SDS011;27468;47.460;19.034;2022-12-18T13:46:19;57.83;;;26.00;;
41799;SDS011;27468;47.460;19.034;2022-12-18T13:49:05;64.30;;;26.63;;
41799;SDS011;27468;47.460;19.034;2022-12-18T13:51:52;62.43;;;25.40;;
41799;SDS011;27468;47.460;19.034;2022-12-18T13:54:21;62.57;;;26.57;;
41799;SDS011;27468;47.460;19.034;2022-12-18T14:00:25;59.63;;;25.13;;
41799;SDS011;27468;47.460;19.034;2022-12-18T14:02:53;64.20;;;26.47;;
41799;SDS011;27468;47.460;19.034;2022-12-18T14:05:23;62.67;;;28.10;;
41799;SDS011;27468;47.460;19.034;2022-12-18T14:08:05;72.53;;;27.77;;
41799;SDS011;27468;47.460;19.034;2022-12-18T14:10:39;65.53;;;26.67;;
41799;SDS011;27468;47.460;19.034;2022-12-18T14:13:08;61.03;;;25.60;;
41799;SDS011;27468;47.460;19.034;2022-12-18T14:15:38;66.13;;;26.87;;
41799;SDS011;27468;47.460;19.034;2022-12-18T14:20:54;57.27;;;24.50;;
41799;SDS011;27468;47.460;19.034;2022-12-18T14:23:26;55.83;;;23.23;;
41799;SDS011;27468;47.460;19.034;2022-12-18T14:26:21;53.40;;;23.80;;
41799;SDS011;27468;47.460;19.034;2022-12-18T14:28:53;60.47;;;24.47;;
41799;SDS011;27468;47.460;19.034;2022-12-18T14:31:23;57.33;;;24.40;;
41799;SDS011;27468;47.460;19.034;2022-12-18T14:33:51;57.70;;;24.95;;
41799;SDS011;27468;47.460;19.034;2022-12-18T14:36:20;57.73;;;23.33;;
41799;SDS011;27468;47.460;19.034;2022-12-18T14:38:49;63.07;;;25.07;;
41799;SDS011;27468;47.460;19.034;2022-12-18T14:41:16;55.47;;;22.93;;
41799;SDS011;27468;47.460;19.034;2022-12-18T14:43:44;63.77;;;25.43;;
41799;SDS011;27468;47.460;19.034;2022-12-18T14:48:52;64.43;;;26.23;;
41799;SDS011;27468;47.460;19.034;2022-12-18T14:51:19;62.17;;;25.70;;
41799;SDS011;27468;47.460;19.034;2022-12-18T14:53:53;61.00;;;25.77;;
41799;SDS011;27468;47.460;19.034;2022-12-18T14:56:30;66.10;;;26.07;;
41799;SDS011;27468;47.460;19.034;2022-12-18T15:01:33;63.53;;;26.70;;
41799;SDS011;27468;47.460;19.034;2022-12-18T15:04:02;68.60;;;28.77;;
41799;SDS011;27468;47.460;19.034;2022-12-18T15:08:57;68.37;;;28.43;;
41799;SDS011;27468;47.460;19.034;2022-12-18T15:11:45;70.53;;;28.87;;
41799;SDS011;27468;47.460;19.034;2022-12-18T15:16:56;78.10;;;30.27;;
41799;SDS011;27468;47.460;19.034;2022-12-18T15:19:25;72.77;;;30.43;;
41799;SDS011;27468;47.460;19.034;2022-12-18T15:22:04;70.80;;;27.73;;
41799;SDS011;27468;47.460;19.034;2022-12-18T15:24:58;72.23;;;29.63;;
41799;SDS011;27468;47.460;19.034;2022-12-18T15:27:28;72.73;;;30.87;;
41799;SDS011;27468;47.460;19.034;2022-12-18T15:32:34;74.93;;;30.87;;
41799;SDS011;27468;47.460;19.034;2022-12-18T15:35:22;82.13;;;32.33;;
41799;SDS011;27468;47.460;19.034;2022-12-18T15:37:48;81.87;;;34.23;;
41799;SDS011;27468;47.460;19.034;2022-12-18T15:40:16;76.80;;;31.40;;
41799;SDS011;27468;47.460;19.034;2022-12-18T15:42:43;89.03;;;33.93;;
41799;SDS011;27468;47.460;19.034;2022-12-18T15:45:28;83.00;;;33.47;;
41799;SDS011;27468;47.460;19.034;2022-12-18T15:47:54;85.30;;;32.80;;
41799;SDS011;27468;47.460;19.034;2022-12-18T15:50:19;82.43;;;33.07;;
41799;SDS011;27468;47.460;19.034;2022-12-18T15:52:45;90.10;;;34.63;;
41799;SDS011;27468;47.460;19.034;2022-12-18T15:55:13;91.33;;;33.97;;
41799;SDS011;27468;47.460;19.034;2022-12-18T15:57:59;83.40;;;33.97;;
41799;SDS011;27468;47.460;19.034;2022-12-18T16:00:24;91.10;;;36.07;;
41799;SDS011;27468;47.460;19.034;2022-12-18T16:02:50;83.90;;;35.23;;
41799;SDS011;27468;47.460;19.034;2022-12-18T16:05:15;91.33;;;36.90;;
41799;SDS011;27468;47.460;19.034;2022-12-18T16:07:42;95.97;;;36.97;;
41799;SDS011;27468;47.460;19.034;2022-12-18T16:10:09;90.10;;;34.30;;
41799;SDS011;27468;47.460;19.034;2022-12-18T16:12:35;91.20;;;35.93;;
41799;SDS011;27468;47.460;19.034;2022-12-18T16:15:00;86.33;;;34.60;;
41799;SDS011;27468;47.460;19.034;2022-12-18T16:17:26;94.83;;;36.43;;
41799;SDS011;27468;47.460;19.034;2022-12-18T16:19:52;89.70;;;36.93;;
41799;SDS011;27468;47.460;19.034;2022-12-18T16:22:27;88.77;;;33.40;;
41799;SDS011;27468;47.460;19.034;2022-12-18T16:24:54;86.10;;;34.20;;
41799;SDS011;27468;47.460;19.034;2022-12-18T16:27:20;98.20;;;35.40;;
41799;SDS011;27468;47.460;19.034;2022-12-18T16:29:47;89.90;;;34.43;;
41799;SDS011;27468;47.460;19.034;2022-12-18T16:32:14;90.37;;;35.47;;
41799;SDS011;27468;47.460;19.034;2022-12-18T16:34:41;93.57;;;35.53;;
41799;SDS011;27468;47.460;19.034;2022-12-18T16:37:08;91.73;;;35.00;;
41799;SDS011;27468;47.460;19.034;2022-12-18T16:39:35;88.37;;;34.17;;
41799;SDS011;27468;47.460;19.034;2022-12-18T16:42:05;90.60;;;35.87;;
41799;SDS011;27468;47.460;19.034;2022-12-18T16:44:41;93.30;;;34.77;;